createdAt,value
2023-04-14T00:03:37.834Z,6.10
2023-04-14T00:08:44.135Z,5.90
2023-04-14T00:13:50.985Z,5.80
2023-04-14T00:18:56.731Z,5.80
2023-04-14T00:24:03.079Z,5.80
2023-04-14T00:29:08.938Z,5.90
2023-04-14T00:34:14.492Z,5.90
2023-04-14T00:39:20.453Z,6.00
2023-04-14T00:44:26.444Z,6.00
2023-04-14T00:49:32.259Z,6.10
2023-04-14T00:54:39.377Z,6.20
2023-04-14T00:59:48.260Z,6.10
2023-04-14T01:04:55.520Z,5.80
2023-04-14T01:10:02.084Z,6.10
2023-04-14T01:15:31.989Z,6.00
2023-04-14T01:20:42.692Z,6.30
2023-04-14T01:26:08.699Z,6.00
2023-04-14T01:31:19.781Z,5.80
2023-04-14T01:36:29.288Z,5.80
2023-04-14T01:41:36.330Z,5.90
2023-04-14T01:46:43.764Z,5.90
2023-04-14T01:51:49.741Z,6.00
2023-04-14T01:56:57.672Z,6.30
2023-04-14T02:02:05.171Z,6.30
2023-04-14T02:07:12.949Z,6.10
2023-04-14T02:12:20.865Z,6.20
2023-04-14T02:17:27.777Z,6.10
2023-04-14T02:22:34.781Z,6.20
2023-04-14T02:27:47.142Z,6.20
2023-04-14T02:32:56.014Z,6.10
2023-04-14T02:38:08.823Z,6.10
2023-04-14T02:43:23.641Z,6.10
2023-04-14T02:48:30.362Z,6.20
2023-04-14T02:53:36.160Z,6.30
2023-04-14T02:58:42.721Z,6.30
2023-04-14T03:03:49.218Z,6.30
2023-04-14T03:08:56.412Z,6.10
2023-04-14T03:14:02.754Z,5.80
2023-04-14T03:19:10.389Z,5.80
2023-04-14T03:24:18.304Z,5.70
2023-04-14T03:29:27.017Z,5.90
2023-04-14T03:34:34.675Z,6.10
2023-04-14T03:39:40.914Z,6.10
2023-04-14T03:44:49.380Z,6.10
2023-04-14T03:49:57.713Z,6.00
2023-04-14T03:55:06.899Z,6.10
2023-04-14T04:00:15.952Z,6.00
2023-04-14T04:05:23.161Z,6.10
2023-04-14T04:10:30.738Z,6.00
2023-04-14T04:15:40.044Z,6.00
2023-04-14T04:20:47.022Z,6.00
2023-04-14T04:25:54.252Z,5.90
2023-04-14T04:31:01.874Z,5.70
2023-04-14T04:36:09.167Z,5.70
2023-04-14T04:41:26.369Z,5.90
2023-04-14T04:46:48.205Z,6.10
2023-04-14T04:51:59.954Z,6.10
2023-04-14T04:57:05.726Z,6.10
2023-04-14T05:02:12.068Z,5.80
2023-04-14T05:07:18.554Z,5.90
2023-04-14T05:12:25.046Z,5.80
2023-04-14T05:17:31.503Z,5.80
2023-04-14T05:22:38.437Z,5.70
2023-04-14T05:27:44.900Z,5.70
2023-04-14T05:32:51.719Z,5.90
2023-04-14T05:37:59.605Z,6.00
2023-04-14T05:43:05.758Z,5.90
2023-04-14T05:48:12.153Z,5.90
2023-04-14T05:53:17.755Z,6.00
2023-04-14T05:58:25.509Z,6.00
2023-04-14T06:03:31.951Z,6.00
2023-04-14T06:08:37.953Z,6.10
2023-04-14T06:13:44.044Z,6.10
2023-04-14T06:18:49.824Z,6.20
2023-04-14T06:23:55.937Z,6.20
2023-04-14T06:29:02.065Z,6.20
2023-04-14T06:34:07.942Z,6.00
2023-04-14T06:39:14.570Z,6.30
2023-04-14T06:44:22.475Z,6.40
2023-04-14T06:49:28.254Z,6.10
2023-04-14T06:54:35.248Z,6.40
2023-04-14T06:59:42.133Z,6.40
2023-04-14T07:04:49.099Z,6.30
2023-04-14T07:09:56.074Z,6.30
2023-04-14T07:15:02.390Z,5.90
2023-04-14T07:20:09.790Z,5.70
2023-04-14T07:25:15.628Z,5.70
2023-04-14T07:30:21.671Z,6.00
2023-04-14T07:35:28.273Z,6.40
2023-04-14T07:40:34.009Z,6.40
2023-04-14T07:45:40.882Z,6.30
2023-04-14T07:50:48.974Z,6.20
2023-04-14T07:55:54.624Z,6.20
2023-04-14T08:01:00.661Z,6.50
2023-04-14T08:06:08.062Z,6.70
2023-04-14T08:11:14.450Z,6.80
2023-04-14T08:16:20.764Z,6.60
2023-04-14T08:21:27.951Z,6.80
2023-04-14T08:26:34.072Z,6.90
2023-04-14T08:31:39.681Z,6.90
2023-04-14T08:36:50.659Z,6.90
2023-04-14T08:41:58.608Z,6.50
2023-04-14T08:47:05.060Z,6.40
2023-04-14T08:52:15.279Z,6.20
2023-04-14T08:57:21.352Z,6.20
2023-04-14T09:02:29.111Z,6.40
2023-04-14T09:07:36.087Z,6.50
2023-04-14T09:12:43.462Z,6.60
2023-04-14T09:17:49.601Z,6.90
2023-04-14T09:22:56.430Z,7.10
2023-04-14T09:28:02.235Z,7.10
2023-04-14T09:33:09.606Z,7.00
2023-04-14T09:38:15.161Z,6.60
2023-04-14T09:43:28.015Z,6.70
2023-04-14T09:48:34.969Z,6.80
2023-04-14T09:53:41.701Z,7.10
2023-04-14T09:58:47.290Z,7.00
2023-04-14T10:03:53.939Z,7.10
2023-04-14T10:09:01.657Z,7.00
2023-04-14T10:14:09.469Z,7.20
2023-04-14T10:19:14.934Z,7.10
2023-04-14T10:24:22.171Z,6.80
2023-04-14T10:29:28.097Z,7.00
2023-04-14T10:34:35.505Z,6.80
2023-04-14T10:39:43.358Z,6.90
2023-04-14T10:45:04.262Z,6.90
2023-04-14T10:50:19.744Z,7.20
2023-04-14T10:55:28.097Z,7.10
2023-04-14T11:00:38.491Z,7.10
2023-04-14T11:05:45.563Z,7.00
2023-04-14T11:10:51.997Z,6.80
2023-04-14T11:16:05.405Z,6.90
2023-04-14T11:21:15.108Z,6.90
2023-04-14T11:26:23.193Z,7.10
2023-04-14T11:31:29.526Z,7.00
2023-04-14T11:36:38.898Z,7.10
2023-04-14T11:41:47.692Z,7.10
2023-04-14T11:46:53.484Z,7.00
2023-04-14T11:52:02.276Z,7.00
2023-04-14T11:57:15.121Z,7.00
2023-04-14T12:02:22.977Z,7.20
2023-04-14T12:07:30.424Z,7.10
2023-04-14T12:12:36.357Z,7.10
2023-04-14T12:17:42.882Z,7.30
2023-04-14T12:22:50.856Z,7.30
2023-04-14T12:27:57.852Z,7.20
2023-04-14T12:33:13.123Z,7.40
2023-04-14T12:38:19.259Z,7.30
2023-04-14T12:43:33.345Z,7.20
2023-04-14T12:48:48.709Z,7.30
2023-04-14T12:53:56.421Z,7.40
2023-04-14T12:59:05.119Z,7.30
2023-04-14T13:04:12.176Z,7.10
2023-04-14T13:09:18.842Z,7.00
2023-04-14T13:14:25.199Z,7.20
2023-04-14T13:19:32.168Z,7.30
2023-04-14T13:24:38.178Z,7.40
2023-04-14T13:29:44.286Z,7.60
2023-04-14T13:34:50.739Z,7.60
2023-04-14T13:39:57.464Z,7.60
2023-04-14T13:45:03.368Z,7.50
2023-04-14T13:50:09.884Z,7.60
2023-04-14T13:55:17.139Z,7.70
2023-04-14T14:00:23.373Z,7.70
2023-04-14T14:05:29.491Z,7.60
2023-04-14T14:10:35.661Z,7.40
2023-04-14T14:15:42.278Z,7.20
2023-04-14T14:20:49.553Z,7.30
2023-04-14T14:25:55.805Z,7.40
2023-04-14T14:31:01.591Z,7.60
2023-04-14T14:36:07.765Z,7.50
2023-04-14T14:41:18.961Z,7.70
2023-04-14T14:46:25.592Z,7.40
2023-04-14T14:51:31.838Z,7.20
2023-04-14T14:56:38.716Z,7.50
2023-04-14T15:01:46.602Z,7.60
2023-04-14T15:06:53.814Z,7.50
2023-04-14T15:12:11.679Z,7.60
2023-04-14T15:17:17.143Z,7.60
2023-04-14T15:22:32.506Z,7.60
2023-04-14T15:27:39.409Z,7.60
2023-04-14T15:32:46.549Z,7.60
2023-04-14T15:37:52.559Z,7.40
2023-04-14T15:42:58.419Z,7.40
2023-04-14T15:48:04.856Z,7.50
2023-04-14T15:53:11.334Z,7.30
2023-04-14T15:58:18.008Z,7.40
2023-04-14T16:03:24.436Z,7.20
2023-04-14T16:08:30.514Z,7.30
2023-04-14T16:13:37.104Z,7.30
2023-04-14T16:18:43.159Z,7.20
2023-04-14T16:23:50.418Z,7.30
2023-04-14T16:28:56.413Z,7.30
2023-04-14T16:34:03.417Z,7.30
2023-04-14T16:39:10.572Z,7.10
2023-04-14T16:44:17.008Z,7.20
2023-04-14T16:49:22.702Z,7.30
2023-04-14T16:54:30.504Z,7.30
2023-04-14T16:59:37.103Z,7.10
2023-04-14T17:04:44.837Z,7.10
2023-04-14T17:09:50.833Z,7.10
2023-04-14T17:14:57.087Z,6.90
2023-04-14T17:20:07.924Z,7.00
2023-04-14T17:25:14.291Z,7.10
2023-04-14T17:30:21.226Z,7.10
2023-04-14T17:35:26.846Z,7.20
2023-04-14T17:40:33.014Z,7.30
2023-04-14T17:45:40.183Z,7.30
2023-04-14T17:50:47.009Z,7.20
2023-04-14T17:55:53.213Z,7.00
2023-04-14T18:00:59.225Z,6.90
2023-04-14T18:06:05.820Z,7.10
2023-04-14T18:11:12.758Z,7.20
2023-04-14T18:16:19.668Z,7.10
2023-04-14T18:21:27.593Z,7.10
2023-04-14T18:26:34.525Z,7.30
2023-04-14T18:31:40.332Z,7.10
2023-04-14T18:36:47.222Z,7.20
2023-04-14T18:41:53.539Z,7.10
2023-04-14T18:46:59.707Z,7.30
2023-04-14T18:52:08.181Z,7.40
2023-04-14T18:57:14.480Z,7.40
2023-04-14T19:02:20.934Z,7.30
2023-04-14T19:07:26.961Z,7.30
2023-04-14T19:12:32.755Z,7.50
2023-04-14T19:17:39.235Z,7.50
2023-04-14T19:22:46.347Z,7.40
2023-04-14T19:27:52.495Z,7.30
2023-04-14T19:32:58.684Z,7.50
2023-04-14T19:38:07.979Z,7.50
2023-04-14T19:43:15.138Z,7.50
2023-04-14T19:48:24.391Z,7.50
2023-04-14T19:53:30.342Z,7.50
2023-04-14T19:58:36.667Z,7.50
2023-04-14T20:04:05.289Z,7.60
2023-04-14T20:08:52.910Z,7.40
2023-04-14T20:14:00.213Z,7.30
2023-04-14T20:19:06.899Z,7.40
2023-04-14T20:24:14.012Z,7.30
2023-04-14T20:29:21.259Z,7.30
2023-04-14T20:34:29.906Z,7.10
2023-04-14T20:39:36.164Z,7.20
2023-04-14T20:44:42.145Z,7.20
2023-04-14T20:49:48.238Z,7.30
2023-04-14T20:54:54.330Z,7.30
2023-04-14T21:00:01.611Z,7.40
2023-04-14T21:05:07.687Z,7.50
2023-04-14T21:10:15.428Z,7.60
2023-04-14T21:15:56.201Z,7.60
2023-04-14T21:20:30.377Z,7.60
2023-04-14T21:25:36.179Z,7.60
2023-04-14T21:30:42.810Z,7.60
2023-04-14T21:35:49.724Z,7.50
2023-04-14T21:40:56.405Z,7.60
2023-04-14T21:46:02.657Z,7.50
2023-04-14T21:51:10.314Z,7.60
2023-04-14T21:56:17.093Z,7.50
2023-04-14T22:01:23.710Z,7.60
2023-04-14T22:06:30.567Z,7.50
2023-04-14T22:11:37.356Z,7.60
2023-04-14T22:16:43.628Z,7.60
2023-04-14T22:21:50.985Z,7.60
2023-04-14T22:26:57.433Z,7.40
2023-04-14T22:32:04.073Z,7.50
2023-04-14T22:37:10.368Z,7.60
2023-04-14T22:42:17.638Z,7.60
2023-04-14T22:47:25.150Z,7.60
2023-04-14T22:52:31.151Z,7.70
2023-04-14T22:57:37.002Z,7.70
2023-04-14T23:02:44.435Z,7.70
2023-04-14T23:07:52.101Z,7.70
2023-04-14T23:12:58.116Z,7.60
2023-04-14T23:18:04.463Z,7.80
2023-04-14T23:23:12.096Z,7.80
2023-04-14T23:28:18.574Z,7.70
2023-04-14T23:33:25.766Z,7.60
2023-04-14T23:38:32.912Z,7.60
2023-04-14T23:43:39.502Z,7.70
2023-04-14T23:48:46.777Z,7.70
2023-04-14T23:53:54.415Z,7.60
2023-04-14T23:59:00.437Z,7.70
